createdAt,value
2022-07-25T00:01:46.034Z,89457.94
2022-07-25T00:04:13.205Z,89455.06
2022-07-25T00:06:42.769Z,89457.13
2022-07-25T00:09:10.248Z,89450.28
2022-07-25T00:11:37.291Z,89451.34
2022-07-25T00:14:05.351Z,89448.13
2022-07-25T00:16:32.699Z,89449.13
2022-07-25T00:18:59.992Z,89451.63
2022-07-25T00:21:27.249Z,89444.59
2022-07-25T00:23:54.096Z,89448.75
2022-07-25T00:26:20.894Z,89446.38
2022-07-25T00:28:47.802Z,89450.09
2022-07-25T00:31:14.673Z,89447.59
2022-07-25T00:33:41.551Z,89441.81
2022-07-25T00:36:09.116Z,89441.09
2022-07-25T00:38:36.040Z,89435.16
2022-07-25T00:41:04.682Z,89439.63
2022-07-25T00:43:31.992Z,89431.44
2022-07-25T00:45:59.578Z,89434.66
2022-07-25T00:48:28.604Z,89439.09
2022-07-25T00:50:57.090Z,89440.59
2022-07-25T00:53:24.597Z,89445.25
2022-07-25T00:55:52.640Z,89445.53
2022-07-25T00:58:19.615Z,89439.84
2022-07-25T01:00:47.687Z,89443.06
2022-07-25T01:03:15.315Z,89450.31
2022-07-25T01:05:42.577Z,89450.75
2022-07-25T01:08:09.873Z,89451.97
2022-07-25T01:10:36.950Z,89448.84
2022-07-25T01:13:03.915Z,89448.50
2022-07-25T01:15:30.927Z,89443.75
2022-07-25T01:17:57.903Z,89445.50
2022-07-25T01:20:27.350Z,89448.00
2022-07-25T01:22:54.679Z,89451.50
2022-07-25T01:25:21.944Z,89446.53
2022-07-25T01:27:55.189Z,89437.09
2022-07-25T01:30:24.309Z,89451.47
2022-07-25T01:32:51.404Z,89449.69
2022-07-25T01:35:18.422Z,89441.41
2022-07-25T01:37:45.465Z,89440.38
2022-07-25T01:40:13.346Z,89419.41
2022-07-25T01:42:40.223Z,89435.38
2022-07-25T01:45:07.721Z,89437.25
2022-07-25T01:47:34.703Z,89435.38
2022-07-25T01:50:01.602Z,89441.09
2022-07-25T01:52:28.810Z,89438.72
2022-07-25T01:54:55.740Z,89439.09
2022-07-25T01:57:24.370Z,89438.66
2022-07-25T01:59:58.212Z,89439.72
2022-07-25T02:02:25.387Z,89434.94
2022-07-25T02:04:52.298Z,89440.84
2022-07-25T02:07:19.345Z,89441.56
2022-07-25T02:09:46.273Z,89445.28
2022-07-25T02:12:13.157Z,89438.44
2022-07-25T02:14:40.075Z,89440.91
2022-07-25T02:17:07.023Z,89438.75
2022-07-25T02:19:34.067Z,89436.97
2022-07-25T02:22:01.123Z,89435.00
2022-07-25T02:24:28.130Z,89429.84
2022-07-25T02:26:54.939Z,89437.22
2022-07-25T02:29:22.302Z,89446.22
2022-07-25T02:31:49.380Z,89444.25
2022-07-25T02:34:16.368Z,89452.13
2022-07-25T02:36:43.527Z,89461.00
2022-07-25T02:39:10.544Z,89456.44
2022-07-25T02:41:37.464Z,89467.00
2022-07-25T02:44:05.615Z,89458.28
2022-07-25T02:46:33.756Z,89469.13
2022-07-25T02:49:01.044Z,89469.66
2022-07-25T02:51:28.087Z,89471.84
2022-07-25T02:53:57.775Z,89471.84
2022-07-25T02:56:25.641Z,89464.28
2022-07-25T02:58:52.588Z,89467.38
2022-07-25T03:01:19.439Z,89463.88
2022-07-25T03:03:46.439Z,89463.69
2022-07-25T03:06:13.442Z,89468.69
2022-07-25T03:08:40.251Z,89471.59
2022-07-25T03:11:07.124Z,89476.50
2022-07-25T03:13:34.064Z,89456.84
2022-07-25T03:16:00.974Z,89460.88
2022-07-25T03:18:27.845Z,89470.97
2022-07-25T03:20:54.770Z,89467.72
2022-07-25T03:23:21.928Z,89460.06
2022-07-25T03:25:48.793Z,89464.31
2022-07-25T03:28:15.715Z,89474.16
2022-07-25T03:30:42.579Z,89468.16
2022-07-25T03:33:09.427Z,89474.75
2022-07-25T03:35:38.242Z,89475.56
2022-07-25T03:38:05.047Z,89469.97
2022-07-25T03:40:31.886Z,89480.13
2022-07-25T03:42:58.818Z,89477.41
2022-07-25T03:45:25.844Z,89473.22
2022-07-25T03:47:52.675Z,89478.34
2022-07-25T03:50:19.582Z,89484.56
2022-07-25T03:52:46.464Z,89470.69
2022-07-25T03:55:13.367Z,89475.28
2022-07-25T03:57:40.305Z,89476.28
2022-07-25T04:00:09.100Z,89476.69
2022-07-25T04:02:36.761Z,89473.41
2022-07-25T04:05:04.909Z,89482.47
2022-07-25T04:07:31.963Z,89485.22
2022-07-25T04:09:58.826Z,89478.09
2022-07-25T04:12:25.824Z,89480.31
2022-07-25T04:14:52.646Z,89485.03
2022-07-25T04:17:19.508Z,89479.72
2022-07-25T04:19:47.934Z,89478.91
2022-07-25T04:22:15.094Z,89476.44
2022-07-25T04:24:41.942Z,89477.69
2022-07-25T04:27:08.922Z,89483.16
2022-07-25T04:29:35.841Z,89490.03
2022-07-25T04:32:02.740Z,89489.50
2022-07-25T04:34:29.781Z,89487.91
2022-07-25T04:36:56.613Z,89489.75
2022-07-25T04:39:23.501Z,89492.28
2022-07-25T04:41:50.451Z,89487.44
2022-07-25T04:44:17.311Z,89486.88
2022-07-25T04:49:10.907Z,89487.28
2022-07-25T04:51:37.714Z,89485.13
2022-07-25T04:54:05.150Z,89486.06
2022-07-25T04:56:32.328Z,89489.88
2022-07-25T04:59:04.685Z,89484.13
2022-07-25T05:01:33.556Z,89482.50
2022-07-25T05:04:00.435Z,89487.56
2022-07-25T05:06:27.295Z,89495.34
2022-07-25T05:08:54.418Z,89485.03
2022-07-25T05:11:21.293Z,89489.56
2022-07-25T05:13:48.175Z,89490.81
2022-07-25T05:16:15.139Z,89484.69
2022-07-25T05:18:42.022Z,89489.19
2022-07-25T05:21:11.437Z,89488.44
2022-07-25T05:23:38.287Z,89490.06
2022-07-25T05:26:05.307Z,89484.97
2022-07-25T05:28:32.154Z,89491.28
2022-07-25T05:30:59.138Z,89488.00
2022-07-25T05:33:26.024Z,89489.44
2022-07-25T05:35:52.982Z,89488.00
2022-07-25T05:38:20.056Z,89483.25
2022-07-25T05:40:47.004Z,89483.38
2022-07-25T05:43:13.755Z,89486.75
2022-07-25T05:45:40.623Z,89488.50
2022-07-25T05:48:07.394Z,89477.56
2022-07-25T05:50:36.545Z,89473.88
2022-07-25T05:53:03.558Z,89465.41
2022-07-25T05:55:30.393Z,89469.34
2022-07-25T05:57:57.234Z,89472.94
2022-07-25T06:00:24.379Z,89468.78
2022-07-25T06:02:51.406Z,89464.78
2022-07-25T06:05:18.414Z,89459.28
2022-07-25T06:07:46.260Z,89467.56
2022-07-25T06:10:13.041Z,89464.59
2022-07-25T06:12:39.859Z,89457.66
2022-07-25T06:15:07.811Z,89456.66
2022-07-25T06:17:39.590Z,89447.69
2022-07-25T06:20:07.502Z,89448.34
2022-07-25T06:22:34.385Z,89441.06
2022-07-25T06:25:04.537Z,89440.66
2022-07-25T06:27:31.377Z,89444.22
2022-07-25T06:29:58.444Z,89433.25
2022-07-25T06:32:25.279Z,89437.91
2022-07-25T06:34:52.218Z,89434.34
2022-07-25T06:37:19.318Z,89426.09
2022-07-25T06:39:46.382Z,89437.25
2022-07-25T06:42:13.358Z,89429.31
2022-07-25T06:44:41.022Z,89438.28
2022-07-25T06:47:08.129Z,89427.88
2022-07-25T06:49:34.966Z,89426.69
2022-07-25T06:52:02.142Z,89423.47
2022-07-25T06:54:28.904Z,89426.50
2022-07-25T06:56:55.733Z,89420.50
2022-07-25T06:59:24.010Z,89425.63
2022-07-25T07:01:51.766Z,89419.13
2022-07-25T07:04:19.047Z,89424.44
2022-07-25T07:06:46.088Z,89428.69
2022-07-25T07:09:12.996Z,89423.66
2022-07-25T07:11:39.907Z,89425.31
2022-07-25T07:14:07.165Z,89424.00
2022-07-25T07:16:34.336Z,89422.41
2022-07-25T07:19:01.163Z,89423.03
2022-07-25T07:21:28.085Z,89428.97
2022-07-25T07:23:56.121Z,89428.97
2022-07-25T07:26:23.860Z,89421.53
2022-07-25T07:28:51.621Z,89416.47
2022-07-25T07:31:18.717Z,89423.13
2022-07-25T07:33:45.928Z,89420.78
2022-07-25T07:36:12.997Z,89427.19
2022-07-25T07:38:39.807Z,89426.19
2022-07-25T07:41:06.664Z,89428.47
2022-07-25T07:43:33.607Z,89426.63
2022-07-25T07:46:01.511Z,89424.84
2022-07-25T07:48:30.462Z,89418.19
2022-07-25T07:50:58.616Z,89420.53
2022-07-25T07:53:25.643Z,89422.75
2022-07-25T07:55:52.423Z,89421.50
2022-07-25T07:58:19.747Z,89419.63
2022-07-25T08:00:48.895Z,89421.88
2022-07-25T08:03:20.961Z,89417.97
2022-07-25T08:05:48.784Z,89421.25
2022-07-25T08:08:16.199Z,89419.63
2022-07-25T08:10:45.975Z,89412.75
2022-07-25T08:13:18.057Z,89408.88
2022-07-25T08:15:48.112Z,89406.69
2022-07-25T08:18:17.483Z,89407.38
2022-07-25T08:20:49.132Z,89397.88
2022-07-25T08:23:17.178Z,89408.00
2022-07-25T08:25:44.932Z,89408.75
2022-07-25T08:28:12.533Z,89404.03
2022-07-25T08:30:40.932Z,89400.84
2022-07-25T08:33:10.252Z,89397.84
2022-07-25T08:35:37.179Z,89401.69
2022-07-25T08:38:05.009Z,89397.50
2022-07-25T08:40:33.882Z,89384.03
2022-07-25T08:43:01.263Z,89390.66
2022-07-25T08:45:28.886Z,89395.72
2022-07-25T08:47:56.642Z,89392.13
2022-07-25T08:50:26.736Z,89404.19
2022-07-25T08:53:16.126Z,89395.41
2022-07-25T08:55:41.986Z,89401.88
2022-07-25T08:58:11.578Z,89398.69
2022-07-25T09:00:38.861Z,89394.09
2022-07-25T09:03:06.588Z,89393.88
2022-07-25T09:05:37.069Z,89395.63
2022-07-25T09:08:13.891Z,89398.22
2022-07-25T09:10:49.612Z,89397.63
2022-07-25T09:13:18.086Z,89388.00
2022-07-25T09:15:55.108Z,89402.81
2022-07-25T09:18:27.416Z,89399.34
2022-07-25T09:20:58.874Z,89389.88
2022-07-25T09:23:33.548Z,89387.25
2022-07-25T09:26:06.484Z,89391.00
2022-07-25T09:28:40.782Z,89396.75
2022-07-25T09:31:07.696Z,89386.81
2022-07-25T09:33:34.625Z,89395.31
2022-07-25T09:36:11.430Z,89393.59
2022-07-25T09:38:38.474Z,89386.81
2022-07-25T09:41:05.763Z,89378.59
2022-07-25T09:43:42.930Z,89385.53
2022-07-25T09:46:11.130Z,89372.44
2022-07-25T09:48:40.027Z,89371.84
2022-07-25T09:51:07.734Z,89369.56
2022-07-25T09:53:34.816Z,89370.75
2022-07-25T09:56:02.230Z,89369.16
2022-07-25T09:58:29.967Z,89365.84
2022-07-25T10:01:03.965Z,89362.84
2022-07-25T10:03:53.171Z,89371.72
2022-07-25T10:06:39.353Z,89373.75
2022-07-25T10:09:13.875Z,89361.09
2022-07-25T10:11:41.223Z,89350.47
2022-07-25T10:14:12.696Z,89363.13
2022-07-25T10:16:47.486Z,89347.31
2022-07-25T10:19:15.308Z,89350.88
2022-07-25T10:21:42.120Z,89348.00
2022-07-25T10:24:10.834Z,89345.56
2022-07-25T10:26:39.553Z,89340.97
2022-07-25T10:29:11.659Z,89346.16
2022-07-25T10:31:49.371Z,89342.69
2022-07-25T10:34:29.334Z,89337.81
2022-07-25T10:36:56.143Z,89343.13
2022-07-25T10:39:23.339Z,89335.81
2022-07-25T10:41:56.213Z,89334.09
2022-07-25T10:44:23.314Z,89332.19
2022-07-25T10:46:50.272Z,89333.78
2022-07-25T10:49:31.148Z,89331.34
2022-07-25T10:52:03.304Z,89322.56
2022-07-25T10:54:36.343Z,89319.69
2022-07-25T10:57:05.340Z,89309.88
2022-07-25T10:59:39.714Z,89310.84
2022-07-25T11:02:11.529Z,89312.56
2022-07-25T11:04:38.413Z,89309.13
2022-07-25T11:07:14.247Z,89300.06
2022-07-25T11:09:43.254Z,89290.00
2022-07-25T11:12:14.946Z,89300.59
2022-07-25T11:14:43.011Z,89293.56
2022-07-25T11:17:17.039Z,89291.72
2022-07-25T11:19:52.921Z,89286.84
2022-07-25T11:22:20.194Z,89296.88
2022-07-25T11:24:47.798Z,89284.78
2022-07-25T11:27:23.462Z,89277.75
2022-07-25T11:29:50.512Z,89275.75
2022-07-25T11:32:18.465Z,89281.78
2022-07-25T11:34:52.986Z,89277.63
2022-07-25T11:37:21.218Z,89282.63
2022-07-25T11:39:48.727Z,89266.78
2022-07-25T11:42:19.931Z,89274.09
2022-07-25T11:44:52.235Z,89274.75
2022-07-25T11:47:30.381Z,89274.72
2022-07-25T11:49:59.928Z,89265.31
2022-07-25T11:52:32.333Z,89265.47
2022-07-25T11:55:06.164Z,89272.22
2022-07-25T11:57:38.455Z,89262.91
2022-07-25T12:00:10.483Z,89249.09
2022-07-25T12:02:38.268Z,89248.44
2022-07-25T12:05:08.033Z,89260.03
2022-07-25T12:07:46.475Z,89251.97
2022-07-25T12:10:19.359Z,89244.31
2022-07-25T12:12:48.233Z,89238.38
2022-07-25T12:15:17.474Z,89239.22
2022-07-25T12:17:44.462Z,89229.97
2022-07-25T12:20:15.221Z,89235.03
2022-07-25T12:22:42.604Z,89233.03
2022-07-25T12:25:11.264Z,89235.03
2022-07-25T12:27:38.706Z,89222.34
2022-07-25T12:30:07.170Z,89226.06
2022-07-25T12:32:35.164Z,89225.59
2022-07-25T12:35:02.616Z,89232.59
2022-07-25T12:37:29.523Z,89228.31
2022-07-25T12:39:56.686Z,89220.66
2022-07-25T12:42:23.930Z,89212.59
2022-07-25T12:44:50.888Z,89210.59
2022-07-25T12:47:17.967Z,89212.13
2022-07-25T12:49:44.889Z,89205.75
2022-07-25T12:52:11.943Z,89213.13
2022-07-25T12:54:39.271Z,89202.19
2022-07-25T12:57:07.291Z,89200.00
2022-07-25T12:59:34.257Z,89198.19
2022-07-25T13:02:01.452Z,89193.09
2022-07-25T13:04:28.523Z,89205.59
2022-07-25T13:06:56.324Z,89190.59
2022-07-25T13:09:23.914Z,89193.44
2022-07-25T13:11:51.736Z,89186.81
2022-07-25T13:14:18.967Z,89191.50
2022-07-25T13:16:47.207Z,89186.81
2022-07-25T13:19:15.313Z,89175.69
2022-07-25T13:21:42.930Z,89185.72
2022-07-25T13:24:10.632Z,89187.97
2022-07-25T13:26:38.433Z,89192.81
2022-07-25T13:29:06.138Z,89193.41
2022-07-25T13:31:33.295Z,89181.28
2022-07-25T13:34:01.635Z,89187.47
2022-07-25T13:36:28.532Z,89178.41
2022-07-25T13:38:55.636Z,89179.47
2022-07-25T13:41:23.522Z,89173.16
2022-07-25T13:43:50.463Z,89171.13
2022-07-25T13:46:17.987Z,89173.16
2022-07-25T13:48:45.003Z,89170.41
2022-07-25T13:51:12.419Z,89180.53
2022-07-25T13:53:39.363Z,89174.00
2022-07-25T13:56:06.427Z,89170.56
2022-07-25T13:58:33.357Z,89167.66
2022-07-25T14:01:00.491Z,89168.38
2022-07-25T14:03:27.411Z,89159.47
2022-07-25T14:05:54.355Z,89158.16
2022-07-25T14:08:21.353Z,89156.16
2022-07-25T14:10:48.447Z,89148.91
2022-07-25T14:13:15.298Z,89146.28
2022-07-25T14:15:42.414Z,89153.06
2022-07-25T14:18:09.340Z,89153.19
2022-07-25T14:20:36.285Z,89153.06
2022-07-25T14:23:03.285Z,89154.59
2022-07-25T14:25:30.176Z,89150.59
2022-07-25T14:27:57.028Z,89145.47
2022-07-25T14:30:24.051Z,89152.53
2022-07-25T14:32:50.962Z,89145.84
2022-07-25T14:35:17.870Z,89143.16
2022-07-25T14:37:44.773Z,89134.78
2022-07-25T14:40:12.486Z,89141.91
2022-07-25T14:42:40.778Z,89134.72
2022-07-25T14:45:08.809Z,89136.91
2022-07-25T14:47:35.784Z,89141.19
2022-07-25T14:50:02.744Z,89139.75
2022-07-25T14:52:29.685Z,89135.44
2022-07-25T14:54:56.550Z,89144.97
2022-07-25T14:57:23.462Z,89140.22
2022-07-25T14:59:50.933Z,89143.78
2022-07-25T15:02:17.840Z,89147.47
2022-07-25T15:04:44.831Z,89151.63
2022-07-25T15:07:12.036Z,89153.31
2022-07-25T15:09:39.042Z,89148.03
2022-07-25T15:12:06.198Z,89153.97
2022-07-25T15:14:33.157Z,89153.38
2022-07-25T15:17:00.085Z,89143.00
2022-07-25T15:19:27.103Z,89147.53
2022-07-25T15:21:54.195Z,89146.53
2022-07-25T15:24:23.592Z,89143.75
2022-07-25T15:26:54.057Z,89149.56
2022-07-25T15:29:21.162Z,89149.06
2022-07-25T15:31:49.442Z,89153.09
2022-07-25T15:34:16.433Z,89142.50
2022-07-25T15:36:43.372Z,89151.34
2022-07-25T15:39:10.511Z,89149.19
2022-07-25T15:41:37.588Z,89143.13
2022-07-25T15:44:05.032Z,89143.72
2022-07-25T15:46:31.940Z,89146.06
2022-07-25T15:48:58.932Z,89145.81
2022-07-25T15:51:25.977Z,89149.59
2022-07-25T15:53:52.834Z,89156.69
2022-07-25T15:56:19.689Z,89151.41
2022-07-25T15:58:49.107Z,89152.06
2022-07-25T16:01:16.033Z,89157.28
2022-07-25T16:03:43.203Z,89157.16
2022-07-25T16:06:10.368Z,89161.22
2022-07-25T16:08:37.366Z,89154.75
2022-07-25T16:11:04.711Z,89163.97
2022-07-25T16:13:32.079Z,89150.03
2022-07-25T16:15:59.053Z,89149.63
2022-07-25T16:18:25.970Z,89155.28
2022-07-25T16:20:53.219Z,89156.63
2022-07-25T16:23:20.084Z,89152.59
2022-07-25T16:25:47.151Z,89157.50
2022-07-25T16:28:14.257Z,89149.19
2022-07-25T16:30:41.109Z,89165.47
2022-07-25T16:33:08.002Z,89162.31
2022-07-25T16:35:34.937Z,89168.50
2022-07-25T16:38:03.423Z,89175.53
2022-07-25T16:40:30.988Z,89174.13
2022-07-25T16:42:58.566Z,89175.72
2022-07-25T16:45:26.687Z,89166.97
2022-07-25T16:47:53.532Z,89177.88
2022-07-25T16:50:21.171Z,89181.22
2022-07-25T16:52:48.079Z,89183.66
2022-07-25T16:55:14.867Z,89194.69
2022-07-25T16:57:41.801Z,89182.03
2022-07-25T17:00:09.821Z,89193.25
2022-07-25T17:02:36.854Z,89192.09
2022-07-25T17:05:04.351Z,89186.19
2022-07-25T17:07:31.995Z,89191.22
2022-07-25T17:09:58.862Z,89196.81
2022-07-25T17:12:25.965Z,89195.91
2022-07-25T17:14:52.901Z,89202.75
2022-07-25T17:17:19.741Z,89206.16
2022-07-25T17:19:46.698Z,89204.28
2022-07-25T17:22:13.546Z,89205.41
2022-07-25T17:24:41.019Z,89202.25
2022-07-25T17:27:09.036Z,89204.41
2022-07-25T17:29:36.845Z,89205.81
2022-07-25T17:32:04.772Z,89202.75
2022-07-25T17:34:31.757Z,89208.63
2022-07-25T17:36:59.383Z,89215.34
2022-07-25T17:39:26.195Z,89213.19
2022-07-25T17:41:53.121Z,89221.16
2022-07-25T17:44:20.457Z,89224.00
2022-07-25T17:46:47.657Z,89224.66
2022-07-25T17:49:14.966Z,89223.63
2022-07-25T17:51:42.020Z,89236.38
2022-07-25T17:54:09.538Z,89236.03
2022-07-25T17:56:37.824Z,89237.91
2022-07-25T17:59:05.199Z,89242.47
2022-07-25T18:01:32.197Z,89248.88
2022-07-25T18:03:59.278Z,89248.16
2022-07-25T18:06:29.703Z,89256.41
2022-07-25T18:08:57.463Z,89259.13
2022-07-25T18:11:24.531Z,89249.38
2022-07-25T18:13:51.458Z,89252.47
2022-07-25T18:16:18.514Z,89261.06
2022-07-25T18:18:45.699Z,89262.91
2022-07-25T18:21:12.623Z,89270.72
2022-07-25T18:23:39.472Z,89273.88
2022-07-25T18:26:06.390Z,89268.50
2022-07-25T18:28:33.656Z,89266.75
2022-07-25T18:31:00.595Z,89280.72
2022-07-25T18:33:27.659Z,89283.28
2022-07-25T18:35:54.468Z,89278.34
2022-07-25T18:38:21.348Z,89283.28
2022-07-25T18:40:51.619Z,89282.97
2022-07-25T18:43:24.569Z,89294.06
2022-07-25T18:45:53.839Z,89280.31
2022-07-25T18:48:20.772Z,89283.97
2022-07-25T18:50:47.604Z,89279.31
2022-07-25T18:53:14.497Z,89283.47
2022-07-25T18:55:41.777Z,89287.31
2022-07-25T18:58:08.886Z,89289.53
2022-07-25T19:00:36.312Z,89290.25
2022-07-25T19:03:03.224Z,89294.88
2022-07-25T19:05:30.107Z,89298.16
2022-07-25T19:07:59.845Z,89297.59
2022-07-25T19:10:26.704Z,89307.06
2022-07-25T19:12:53.558Z,89294.06
2022-07-25T19:15:20.607Z,89290.09
2022-07-25T19:17:47.465Z,89295.94
2022-07-25T19:20:14.846Z,89292.34
2022-07-25T19:22:41.728Z,89288.72
2022-07-25T19:25:08.836Z,89292.41
2022-07-25T19:27:35.921Z,89289.16
2022-07-25T19:30:03.259Z,89292.63
2022-07-25T19:32:30.106Z,89289.38
2022-07-25T19:34:56.956Z,89295.03
2022-07-25T19:37:23.913Z,89299.59
2022-07-25T19:39:50.839Z,89300.53
2022-07-25T19:42:17.658Z,89297.31
2022-07-25T19:44:44.506Z,89300.97
2022-07-25T19:47:12.000Z,89294.47
2022-07-25T19:49:39.910Z,89294.53
2022-07-25T19:52:10.439Z,89295.97
2022-07-25T19:54:38.196Z,89293.41
2022-07-25T19:57:05.431Z,89291.63
2022-07-25T19:59:32.443Z,89291.66
2022-07-25T20:01:59.503Z,89290.75
2022-07-25T20:04:26.470Z,89289.47
2022-07-25T20:06:53.304Z,89291.31
2022-07-25T20:09:20.720Z,89297.13
2022-07-25T20:11:47.721Z,89300.75
2022-07-25T20:14:14.678Z,89295.34
2022-07-25T20:16:41.674Z,89290.28
2022-07-25T20:19:10.153Z,89295.03
2022-07-25T20:21:38.364Z,89293.03
2022-07-25T20:24:05.442Z,89296.84
2022-07-25T20:26:32.292Z,89302.63
2022-07-25T20:28:59.337Z,89307.00
2022-07-25T20:31:26.249Z,89305.19
2022-07-25T20:33:53.109Z,89306.31
2022-07-25T20:36:20.538Z,89309.91
2022-07-25T20:38:47.676Z,89305.97
2022-07-25T20:41:15.449Z,89312.09
2022-07-25T20:43:42.596Z,89308.84
2022-07-25T20:46:09.670Z,89308.84
2022-07-25T20:48:36.778Z,89314.28
2022-07-25T20:51:04.033Z,89319.88
2022-07-25T20:53:30.919Z,89321.53
2022-07-25T20:55:57.764Z,89315.94
2022-07-25T20:58:24.658Z,89321.19
2022-07-25T21:00:51.651Z,89318.63
2022-07-25T21:03:18.595Z,89319.91
2022-07-25T21:05:45.650Z,89317.91
2022-07-25T21:08:12.502Z,89323.88
2022-07-25T21:10:39.546Z,89317.72
2022-07-25T21:13:06.471Z,89317.00
2022-07-25T21:15:33.480Z,89315.75
2022-07-25T21:18:00.929Z,89320.47
2022-07-25T21:20:27.923Z,89322.78
2022-07-25T21:22:54.798Z,89314.84
2022-07-25T21:25:22.039Z,89309.41
2022-07-25T21:27:49.088Z,89301.50
2022-07-25T21:30:16.057Z,89300.38
2022-07-25T21:32:42.945Z,89292.06
2022-07-25T21:35:09.942Z,89297.66
2022-07-25T21:37:36.897Z,89296.06
2022-07-25T21:40:04.825Z,89298.22
2022-07-25T21:42:31.760Z,89293.34
2022-07-25T21:44:58.559Z,89299.84
2022-07-25T21:47:25.410Z,89302.56
2022-07-25T21:49:52.899Z,89303.44
2022-07-25T21:52:26.614Z,89311.75
2022-07-25T21:55:01.865Z,89308.84
2022-07-25T21:57:28.743Z,89310.66
2022-07-25T21:59:55.910Z,89305.25
2022-07-25T22:02:23.095Z,89307.94
2022-07-25T22:04:50.252Z,89299.81
2022-07-25T22:07:17.100Z,89309.19
2022-07-25T22:09:44.158Z,89308.13
2022-07-25T22:12:11.134Z,89299.81
2022-07-25T22:14:37.949Z,89299.09
2022-07-25T22:17:05.291Z,89303.56
2022-07-25T22:19:32.617Z,89309.50
2022-07-25T22:21:59.453Z,89303.22
2022-07-25T22:24:26.440Z,89314.19
2022-07-25T22:26:53.322Z,89310.22
2022-07-25T22:29:20.197Z,89311.13
2022-07-25T22:31:47.816Z,89309.81
2022-07-25T22:34:14.787Z,89307.47
2022-07-25T22:36:41.619Z,89312.50
2022-07-25T22:39:08.934Z,89310.34
2022-07-25T22:41:36.185Z,89314.47
2022-07-25T22:44:03.125Z,89312.28
2022-07-25T22:46:31.569Z,89305.81
2022-07-25T22:48:59.155Z,89305.09
2022-07-25T22:51:26.501Z,89308.28
2022-07-25T22:53:54.032Z,89305.59
2022-07-25T22:56:21.773Z,89301.44
2022-07-25T22:58:49.030Z,89301.25
2022-07-25T23:01:17.122Z,89297.84
2022-07-25T23:03:44.166Z,89303.78
2022-07-25T23:06:11.087Z,89302.13
2022-07-25T23:08:37.989Z,89309.00
2022-07-25T23:11:05.209Z,89309.75
2022-07-25T23:13:33.243Z,89316.91
2022-07-25T23:16:00.329Z,89304.13
2022-07-25T23:18:28.744Z,89300.84
2022-07-25T23:20:55.552Z,89300.25
2022-07-25T23:23:22.451Z,89299.88
2022-07-25T23:25:49.315Z,89291.94
2022-07-25T23:28:16.129Z,89293.72
2022-07-25T23:30:43.015Z,89294.78
2022-07-25T23:33:09.907Z,89300.72
2022-07-25T23:35:36.859Z,89292.78
2022-07-25T23:38:04.121Z,89302.31
2022-07-25T23:40:31.044Z,89301.94
2022-07-25T23:42:57.869Z,89308.19
2022-07-25T23:45:27.906Z,89309.78
2022-07-25T23:47:56.018Z,89305.63
2022-07-25T23:50:23.564Z,89303.66
2022-07-25T23:52:50.545Z,89302.41
2022-07-25T23:55:17.543Z,89302.22
2022-07-25T23:57:44.461Z,89297.53
